Terminal Aerodrome Forecast
Issued by NWS

Home | Current Version | Previous Version | Text Only | Print | Product List | Glossary On
Versions: 1 2 3 4 5 6 7 8 9 10 11 12 13 14 15 16 17 18
000
FTUS46 KMTR 210600 AAA
TAFMRY
TAF AMD
KMRY 210622Z 2106/2206 25004KT P6SM SCT010
     FM210800 VRB04KT P6SM OVC011
     FM211800 VRB03KT P6SM SCT013
     FM212000 23008KT P6SM SKC
     FM220200 23006KT P6SM SCT012
     FM220400 23004KT P6SM OVC010=

USA.gov is the U.S. government's official web portal to all federal, state and local government web resources and services.